sensor_id;sensor_type;location;lat;lon;timestamp;P1;durP1;ratioP1;P2;durP2;ratioP2
55069;SDS011;40967;52.070;8.596;2023-01-23T00:01:44;9.50;;;5.70;;
55069;SDS011;40967;52.070;8.596;2023-01-23T00:04:11;8.75;;;5.15;;
55069;SDS011;40967;52.070;8.596;2023-01-23T00:06:37;8.88;;;5.13;;
55069;SDS011;40967;52.070;8.596;2023-01-23T00:09:03;9.63;;;5.32;;
55069;SDS011;40967;52.070;8.596;2023-01-23T00:11:29;10.20;;;6.03;;
55069;SDS011;40967;52.070;8.596;2023-01-23T00:13:55;9.70;;;5.40;;
55069;SDS011;40967;52.070;8.596;2023-01-23T00:16:22;10.18;;;5.97;;
55069;SDS011;40967;52.070;8.596;2023-01-23T00:18:49;9.07;;;5.50;;
55069;SDS011;40967;52.070;8.596;2023-01-23T00:21:15;9.63;;;5.53;;
55069;SDS011;40967;52.070;8.596;2023-01-23T00:23:46;10.27;;;5.73;;
55069;SDS011;40967;52.070;8.596;2023-01-23T00:26:16;9.88;;;5.53;;
55069;SDS011;40967;52.070;8.596;2023-01-23T00:28:43;10.75;;;5.75;;
55069;SDS011;40967;52.070;8.596;2023-01-23T00:31:10;10.63;;;5.80;;
55069;SDS011;40967;52.070;8.596;2023-01-23T00:33:38;10.88;;;5.50;;
55069;SDS011;40967;52.070;8.596;2023-01-23T00:36:04;9.75;;;5.45;;
55069;SDS011;40967;52.070;8.596;2023-01-23T00:38:30;10.55;;;5.82;;
55069;SDS011;40967;52.070;8.596;2023-01-23T00:40:56;10.53;;;5.40;;
55069;SDS011;40967;52.070;8.596;2023-01-23T00:43:22;8.73;;;4.87;;
55069;SDS011;40967;52.070;8.596;2023-01-23T00:45:48;9.30;;;5.20;;
55069;SDS011;40967;52.070;8.596;2023-01-23T00:48:14;10.13;;;5.45;;
55069;SDS011;40967;52.070;8.596;2023-01-23T00:50:39;10.18;;;5.40;;
55069;SDS011;40967;52.070;8.596;2023-01-23T00:53:05;12.43;;;6.43;;
55069;SDS011;40967;52.070;8.596;2023-01-23T00:55:30;10.27;;;5.90;;
55069;SDS011;40967;52.070;8.596;2023-01-23T00:57:56;9.98;;;5.82;;
55069;SDS011;40967;52.070;8.596;2023-01-23T01:00:21;10.90;;;5.97;;
55069;SDS011;40967;52.070;8.596;2023-01-23T01:02:46;10.65;;;6.00;;
55069;SDS011;40967;52.070;8.596;2023-01-23T01:05:12;9.43;;;5.33;;
55069;SDS011;40967;52.070;8.596;2023-01-23T01:07:37;10.10;;;5.60;;
55069;SDS011;40967;52.070;8.596;2023-01-23T01:10:03;9.73;;;5.27;;
55069;SDS011;40967;52.070;8.596;2023-01-23T01:12:28;11.38;;;5.82;;
55069;SDS011;40967;52.070;8.596;2023-01-23T01:14:54;10.38;;;5.40;;
55069;SDS011;40967;52.070;8.596;2023-01-23T01:17:19;10.00;;;5.83;;
55069;SDS011;40967;52.070;8.596;2023-01-23T01:19:45;10.80;;;5.77;;
55069;SDS011;40967;52.070;8.596;2023-01-23T01:22:10;9.60;;;5.57;;
55069;SDS011;40967;52.070;8.596;2023-01-23T01:24:35;10.80;;;5.77;;
55069;SDS011;40967;52.070;8.596;2023-01-23T01:27:01;9.67;;;5.53;;
55069;SDS011;40967;52.070;8.596;2023-01-23T01:29:26;11.10;;;6.07;;
55069;SDS011;40967;52.070;8.596;2023-01-23T01:31:51;11.38;;;6.18;;
55069;SDS011;40967;52.070;8.596;2023-01-23T01:34:17;11.03;;;5.73;;
55069;SDS011;40967;52.070;8.596;2023-01-23T01:36:42;10.50;;;5.43;;
55069;SDS011;40967;52.070;8.596;2023-01-23T01:39:08;13.25;;;6.68;;
55069;SDS011;40967;52.070;8.596;2023-01-23T01:41:33;12.97;;;6.63;;
55069;SDS011;40967;52.070;8.596;2023-01-23T01:43:59;10.50;;;5.63;;
55069;SDS011;40967;52.070;8.596;2023-01-23T01:46:25;11.73;;;6.50;;
55069;SDS011;40967;52.070;8.596;2023-01-23T01:57:15;11.23;;;5.80;;
55069;SDS011;40967;52.070;8.596;2023-01-23T02:02:34;12.75;;;6.15;;
55069;SDS011;40967;52.070;8.596;2023-01-23T02:05:06;12.27;;;6.27;;
55069;SDS011;40967;52.070;8.596;2023-01-23T02:10:09;13.23;;;6.32;;
55069;SDS011;40967;52.070;8.596;2023-01-23T02:12:35;12.07;;;6.15;;
55069;SDS011;40967;52.070;8.596;2023-01-23T02:15:03;11.98;;;6.25;;
55069;SDS011;40967;52.070;8.596;2023-01-23T02:17:30;11.48;;;6.30;;
55069;SDS011;40967;52.070;8.596;2023-01-23T02:28:09;12.32;;;6.63;;
55069;SDS011;40967;52.070;8.596;2023-01-23T02:30:35;14.30;;;7.45;;
55069;SDS011;40967;52.070;8.596;2023-01-23T02:35:44;14.20;;;6.87;;
55069;SDS011;40967;52.070;8.596;2023-01-23T02:38:10;13.07;;;6.40;;
55069;SDS011;40967;52.070;8.596;2023-01-23T02:40:40;12.80;;;6.23;;
55069;SDS011;40967;52.070;8.596;2023-01-23T02:43:08;11.43;;;5.70;;
55069;SDS011;40967;52.070;8.596;2023-01-23T02:45:36;11.27;;;6.00;;
55069;SDS011;40967;52.070;8.596;2023-01-23T02:48:03;10.90;;;5.75;;
55069;SDS011;40967;52.070;8.596;2023-01-23T02:50:30;10.73;;;5.57;;
55069;SDS011;40967;52.070;8.596;2023-01-23T02:52:55;11.90;;;5.63;;
55069;SDS011;40967;52.070;8.596;2023-01-23T02:55:22;10.30;;;5.47;;
55069;SDS011;40967;52.070;8.596;2023-01-23T02:57:50;11.10;;;5.28;;
55069;SDS011;40967;52.070;8.596;2023-01-23T03:00:16;9.85;;;5.07;;
55069;SDS011;40967;52.070;8.596;2023-01-23T03:02:45;8.88;;;4.60;;
55069;SDS011;40967;52.070;8.596;2023-01-23T03:05:12;8.77;;;4.43;;
55069;SDS011;40967;52.070;8.596;2023-01-23T03:07:37;9.83;;;4.77;;
55069;SDS011;40967;52.070;8.596;2023-01-23T03:10:03;11.07;;;5.73;;
55069;SDS011;40967;52.070;8.596;2023-01-23T03:12:29;9.88;;;5.05;;
55069;SDS011;40967;52.070;8.596;2023-01-23T03:14:55;11.63;;;5.53;;
55069;SDS011;40967;52.070;8.596;2023-01-23T03:17:22;9.82;;;5.15;;
55069;SDS011;40967;52.070;8.596;2023-01-23T03:19:48;9.50;;;4.88;;
55069;SDS011;40967;52.070;8.596;2023-01-23T03:22:14;10.50;;;5.30;;
55069;SDS011;40967;52.070;8.596;2023-01-23T03:24:39;10.05;;;5.05;;
55069;SDS011;40967;52.070;8.596;2023-01-23T03:27:05;9.40;;;4.97;;
55069;SDS011;40967;52.070;8.596;2023-01-23T03:29:30;8.82;;;4.80;;
55069;SDS011;40967;52.070;8.596;2023-01-23T03:32:15;9.90;;;4.78;;
55069;SDS011;40967;52.070;8.596;2023-01-23T03:34:40;9.55;;;4.90;;
55069;SDS011;40967;52.070;8.596;2023-01-23T03:37:07;9.60;;;4.63;;
55069;SDS011;40967;52.070;8.596;2023-01-23T03:39:33;9.98;;;5.03;;
55069;SDS011;40967;52.070;8.596;2023-01-23T03:42:17;8.82;;;4.78;;
55069;SDS011;40967;52.070;8.596;2023-01-23T03:44:43;9.93;;;5.10;;
55069;SDS011;40967;52.070;8.596;2023-01-23T03:47:08;10.63;;;5.50;;
55069;SDS011;40967;52.070;8.596;2023-01-23T03:49:34;11.20;;;5.90;;
55069;SDS011;40967;52.070;8.596;2023-01-23T03:52:00;11.03;;;6.03;;
55069;SDS011;40967;52.070;8.596;2023-01-23T03:54:25;9.17;;;5.23;;
55069;SDS011;40967;52.070;8.596;2023-01-23T03:56:51;11.23;;;5.57;;
55069;SDS011;40967;52.070;8.596;2023-01-23T03:59:17;9.98;;;5.40;;
55069;SDS011;40967;52.070;8.596;2023-01-23T04:01:43;11.03;;;5.70;;
55069;SDS011;40967;52.070;8.596;2023-01-23T04:04:08;10.10;;;5.50;;
55069;SDS011;40967;52.070;8.596;2023-01-23T04:06:33;8.47;;;4.70;;
55069;SDS011;40967;52.070;8.596;2023-01-23T04:08:59;10.30;;;5.20;;
55069;SDS011;40967;52.070;8.596;2023-01-23T04:11:24;8.53;;;4.90;;
55069;SDS011;40967;52.070;8.596;2023-01-23T04:13:50;9.27;;;5.40;;
55069;SDS011;40967;52.070;8.596;2023-01-23T04:16:16;8.70;;;4.70;;
55069;SDS011;40967;52.070;8.596;2023-01-23T04:18:42;9.57;;;5.30;;
55069;SDS011;40967;52.070;8.596;2023-01-23T04:21:07;8.90;;;4.83;;
55069;SDS011;40967;52.070;8.596;2023-01-23T04:23:33;8.10;;;4.38;;
55069;SDS011;40967;52.070;8.596;2023-01-23T04:25:58;8.23;;;4.40;;
55069;SDS011;40967;52.070;8.596;2023-01-23T04:28:25;7.47;;;4.13;;
55069;SDS011;40967;52.070;8.596;2023-01-23T04:30:50;8.50;;;4.68;;
55069;SDS011;40967;52.070;8.596;2023-01-23T04:33:17;9.27;;;5.00;;
55069;SDS011;40967;52.070;8.596;2023-01-23T04:35:53;8.55;;;5.03;;
55069;SDS011;40967;52.070;8.596;2023-01-23T04:38:23;8.25;;;4.55;;
55069;SDS011;40967;52.070;8.596;2023-01-23T04:40:50;8.43;;;4.90;;
55069;SDS011;40967;52.070;8.596;2023-01-23T04:43:16;8.35;;;4.38;;
55069;SDS011;40967;52.070;8.596;2023-01-23T04:45:41;8.00;;;4.25;;
55069;SDS011;40967;52.070;8.596;2023-01-23T04:48:08;7.70;;;4.20;;
55069;SDS011;40967;52.070;8.596;2023-01-23T04:50:34;8.75;;;4.80;;
55069;SDS011;40967;52.070;8.596;2023-01-23T04:52:59;7.60;;;4.30;;
55069;SDS011;40967;52.070;8.596;2023-01-23T04:55:24;7.90;;;4.20;;
55069;SDS011;40967;52.070;8.596;2023-01-23T04:57:52;8.40;;;4.43;;
55069;SDS011;40967;52.070;8.596;2023-01-23T05:00:17;7.67;;;4.33;;
55069;SDS011;40967;52.070;8.596;2023-01-23T05:02:47;7.82;;;4.32;;
55069;SDS011;40967;52.070;8.596;2023-01-23T05:05:12;8.35;;;4.57;;
55069;SDS011;40967;52.070;8.596;2023-01-23T05:07:38;7.72;;;4.28;;
55069;SDS011;40967;52.070;8.596;2023-01-23T05:10:04;9.60;;;4.83;;
55069;SDS011;40967;52.070;8.596;2023-01-23T05:12:30;8.80;;;4.82;;
55069;SDS011;40967;52.070;8.596;2023-01-23T05:14:55;10.30;;;5.43;;
55069;SDS011;40967;52.070;8.596;2023-01-23T05:17:20;9.00;;;5.23;;
55069;SDS011;40967;52.070;8.596;2023-01-23T05:19:49;8.90;;;5.17;;
55069;SDS011;40967;52.070;8.596;2023-01-23T05:22:14;8.10;;;4.60;;
55069;SDS011;40967;52.070;8.596;2023-01-23T05:24:39;8.35;;;4.70;;
55069;SDS011;40967;52.070;8.596;2023-01-23T05:27:05;9.23;;;5.40;;
55069;SDS011;40967;52.070;8.596;2023-01-23T05:29:30;9.13;;;4.97;;
55069;SDS011;40967;52.070;8.596;2023-01-23T05:31:55;9.77;;;5.60;;
55069;SDS011;40967;52.070;8.596;2023-01-23T05:34:21;10.25;;;5.93;;
55069;SDS011;40967;52.070;8.596;2023-01-23T05:36:46;11.33;;;5.97;;
55069;SDS011;40967;52.070;8.596;2023-01-23T05:39:11;9.10;;;5.40;;
55069;SDS011;40967;52.070;8.596;2023-01-23T05:41:37;10.95;;;5.72;;
55069;SDS011;40967;52.070;8.596;2023-01-23T05:44:02;8.93;;;5.40;;
55069;SDS011;40967;52.070;8.596;2023-01-23T05:46:27;9.57;;;5.50;;
55069;SDS011;40967;52.070;8.596;2023-01-23T05:48:53;9.93;;;5.43;;
55069;SDS011;40967;52.070;8.596;2023-01-23T05:51:18;9.67;;;4.93;;
55069;SDS011;40967;52.070;8.596;2023-01-23T05:53:44;9.40;;;5.20;;
55069;SDS011;40967;52.070;8.596;2023-01-23T05:56:09;9.97;;;5.33;;
55069;SDS011;40967;52.070;8.596;2023-01-23T05:58:34;9.27;;;5.05;;
55069;SDS011;40967;52.070;8.596;2023-01-23T06:01:03;10.53;;;5.20;;
55069;SDS011;40967;52.070;8.596;2023-01-23T06:03:29;8.55;;;5.00;;
55069;SDS011;40967;52.070;8.596;2023-01-23T06:05:54;9.07;;;5.00;;
55069;SDS011;40967;52.070;8.596;2023-01-23T06:08:20;9.50;;;5.00;;
55069;SDS011;40967;52.070;8.596;2023-01-23T06:10:45;9.33;;;5.10;;
55069;SDS011;40967;52.070;8.596;2023-01-23T06:13:10;11.13;;;5.72;;
55069;SDS011;40967;52.070;8.596;2023-01-23T06:15:36;10.83;;;6.10;;
55069;SDS011;40967;52.070;8.596;2023-01-23T06:18:02;11.77;;;6.15;;
55069;SDS011;40967;52.070;8.596;2023-01-23T06:20:27;9.90;;;5.60;;
55069;SDS011;40967;52.070;8.596;2023-01-23T06:22:52;10.40;;;6.00;;
55069;SDS011;40967;52.070;8.596;2023-01-23T06:25:18;11.52;;;5.55;;
55069;SDS011;40967;52.070;8.596;2023-01-23T06:27:45;11.07;;;6.05;;
55069;SDS011;40967;52.070;8.596;2023-01-23T06:30:11;11.85;;;5.95;;
55069;SDS011;40967;52.070;8.596;2023-01-23T06:32:37;10.73;;;6.00;;
55069;SDS011;40967;52.070;8.596;2023-01-23T06:35:03;13.83;;;6.40;;
55069;SDS011;40967;52.070;8.596;2023-01-23T06:37:28;11.52;;;6.63;;
55069;SDS011;40967;52.070;8.596;2023-01-23T06:39:54;11.37;;;6.57;;
55069;SDS011;40967;52.070;8.596;2023-01-23T06:42:19;12.40;;;6.17;;
55069;SDS011;40967;52.070;8.596;2023-01-23T06:44:45;13.03;;;7.00;;
55069;SDS011;40967;52.070;8.596;2023-01-23T06:47:11;12.20;;;6.50;;
55069;SDS011;40967;52.070;8.596;2023-01-23T06:49:36;10.97;;;6.13;;
55069;SDS011;40967;52.070;8.596;2023-01-23T06:52:02;9.40;;;5.45;;
55069;SDS011;40967;52.070;8.596;2023-01-23T06:54:27;10.68;;;5.63;;
55069;SDS011;40967;52.070;8.596;2023-01-23T06:56:53;11.87;;;5.87;;
55069;SDS011;40967;52.070;8.596;2023-01-23T06:59:18;10.83;;;6.33;;
55069;SDS011;40967;52.070;8.596;2023-01-23T07:01:43;10.73;;;6.03;;
55069;SDS011;40967;52.070;8.596;2023-01-23T07:04:09;11.77;;;6.53;;
55069;SDS011;40967;52.070;8.596;2023-01-23T07:06:34;11.80;;;6.37;;
55069;SDS011;40967;52.070;8.596;2023-01-23T07:09:00;12.93;;;6.15;;
55069;SDS011;40967;52.070;8.596;2023-01-23T07:11:26;11.40;;;6.10;;
55069;SDS011;40967;52.070;8.596;2023-01-23T07:13:51;11.23;;;6.27;;
55069;SDS011;40967;52.070;8.596;2023-01-23T07:16:17;11.75;;;6.00;;
55069;SDS011;40967;52.070;8.596;2023-01-23T07:18:43;11.63;;;6.15;;
55069;SDS011;40967;52.070;8.596;2023-01-23T07:21:08;11.90;;;6.67;;
55069;SDS011;40967;52.070;8.596;2023-01-23T07:23:34;12.45;;;6.50;;
55069;SDS011;40967;52.070;8.596;2023-01-23T07:26:03;13.13;;;6.50;;
55069;SDS011;40967;52.070;8.596;2023-01-23T07:28:33;12.35;;;6.50;;
55069;SDS011;40967;52.070;8.596;2023-01-23T07:31:02;12.32;;;6.63;;
55069;SDS011;40967;52.070;8.596;2023-01-23T07:33:27;11.43;;;6.18;;
55069;SDS011;40967;52.070;8.596;2023-01-23T07:35:53;11.97;;;6.53;;
55069;SDS011;40967;52.070;8.596;2023-01-23T07:38:19;10.63;;;5.88;;
55069;SDS011;40967;52.070;8.596;2023-01-23T07:40:47;11.40;;;5.53;;
55069;SDS011;40967;52.070;8.596;2023-01-23T07:43:13;11.30;;;6.35;;
55069;SDS011;40967;52.070;8.596;2023-01-23T07:45:39;10.97;;;5.97;;
55069;SDS011;40967;52.070;8.596;2023-01-23T07:48:04;11.07;;;5.90;;
55069;SDS011;40967;52.070;8.596;2023-01-23T07:50:30;11.88;;;6.22;;
55069;SDS011;40967;52.070;8.596;2023-01-23T07:52:55;12.10;;;6.23;;
55069;SDS011;40967;52.070;8.596;2023-01-23T07:55:20;12.57;;;6.80;;
55069;SDS011;40967;52.070;8.596;2023-01-23T07:57:46;12.52;;;6.40;;
55069;SDS011;40967;52.070;8.596;2023-01-23T08:00:11;10.93;;;5.90;;
55069;SDS011;40967;52.070;8.596;2023-01-23T08:02:38;11.38;;;6.18;;
55069;SDS011;40967;52.070;8.596;2023-01-23T08:05:03;12.80;;;6.20;;
55069;SDS011;40967;52.070;8.596;2023-01-23T08:07:29;10.90;;;5.90;;
55069;SDS011;40967;52.070;8.596;2023-01-23T08:09:55;11.93;;;6.50;;
55069;SDS011;40967;52.070;8.596;2023-01-23T08:12:20;12.23;;;6.47;;
55069;SDS011;40967;52.070;8.596;2023-01-23T08:14:46;11.80;;;6.57;;
55069;SDS011;40967;52.070;8.596;2023-01-23T08:17:12;12.05;;;6.40;;
55069;SDS011;40967;52.070;8.596;2023-01-23T08:19:37;11.27;;;6.30;;
55069;SDS011;40967;52.070;8.596;2023-01-23T08:22:03;12.87;;;6.97;;
55069;SDS011;40967;52.070;8.596;2023-01-23T08:24:29;14.98;;;7.63;;
55069;SDS011;40967;52.070;8.596;2023-01-23T08:26:54;12.30;;;6.97;;
55069;SDS011;40967;52.070;8.596;2023-01-23T08:29:20;14.25;;;7.45;;
55069;SDS011;40967;52.070;8.596;2023-01-23T08:31:45;14.57;;;7.57;;
55069;SDS011;40967;52.070;8.596;2023-01-23T08:34:11;12.67;;;6.93;;
55069;SDS011;40967;52.070;8.596;2023-01-23T08:36:36;12.47;;;7.20;;
55069;SDS011;40967;52.070;8.596;2023-01-23T08:39:02;14.80;;;7.57;;
55069;SDS011;40967;52.070;8.596;2023-01-23T08:41:27;13.57;;;7.72;;
55069;SDS011;40967;52.070;8.596;2023-01-23T08:43:53;13.27;;;7.07;;
55069;SDS011;40967;52.070;8.596;2023-01-23T08:46:18;11.15;;;6.47;;
55069;SDS011;40967;52.070;8.596;2023-01-23T08:48:44;12.50;;;6.53;;
55069;SDS011;40967;52.070;8.596;2023-01-23T08:51:10;11.10;;;6.10;;
55069;SDS011;40967;52.070;8.596;2023-01-23T08:53:36;11.40;;;6.03;;
55069;SDS011;40967;52.070;8.596;2023-01-23T08:56:06;11.23;;;5.50;;
55069;SDS011;40967;52.070;8.596;2023-01-23T08:58:33;9.88;;;5.60;;
55069;SDS011;40967;52.070;8.596;2023-01-23T09:00:59;9.88;;;5.43;;
55069;SDS011;40967;52.070;8.596;2023-01-23T09:03:24;10.90;;;6.10;;
55069;SDS011;40967;52.070;8.596;2023-01-23T09:05:50;10.60;;;5.80;;
55069;SDS011;40967;52.070;8.596;2023-01-23T09:08:16;10.93;;;6.20;;
55069;SDS011;40967;52.070;8.596;2023-01-23T09:10:41;11.27;;;6.23;;
55069;SDS011;40967;52.070;8.596;2023-01-23T09:13:07;13.02;;;6.72;;
55069;SDS011;40967;52.070;8.596;2023-01-23T09:15:32;11.13;;;5.80;;
55069;SDS011;40967;52.070;8.596;2023-01-23T09:17:58;11.07;;;6.07;;
55069;SDS011;40967;52.070;8.596;2023-01-23T09:20:23;11.93;;;6.18;;
55069;SDS011;40967;52.070;8.596;2023-01-23T09:22:53;10.18;;;5.85;;
55069;SDS011;40967;52.070;8.596;2023-01-23T09:25:18;10.85;;;5.70;;
55069;SDS011;40967;52.070;8.596;2023-01-23T09:27:44;10.77;;;6.00;;
55069;SDS011;40967;52.070;8.596;2023-01-23T09:30:10;10.60;;;6.20;;
55069;SDS011;40967;52.070;8.596;2023-01-23T09:32:35;10.80;;;5.57;;
55069;SDS011;40967;52.070;8.596;2023-01-23T09:35:01;9.98;;;5.85;;
55069;SDS011;40967;52.070;8.596;2023-01-23T09:37:28;9.57;;;5.20;;
55069;SDS011;40967;52.070;8.596;2023-01-23T09:40:14;10.95;;;5.85;;
55069;SDS011;40967;52.070;8.596;2023-01-23T09:42:42;9.65;;;5.50;;
55069;SDS011;40967;52.070;8.596;2023-01-23T09:45:08;10.33;;;5.97;;
55069;SDS011;40967;52.070;8.596;2023-01-23T09:47:38;10.10;;;5.50;;
55069;SDS011;40967;52.070;8.596;2023-01-23T09:50:47;10.73;;;5.97;;
55069;SDS011;40967;52.070;8.596;2023-01-23T09:53:12;10.43;;;5.32;;
55069;SDS011;40967;52.070;8.596;2023-01-23T09:58:09;11.77;;;5.97;;
55069;SDS011;40967;52.070;8.596;2023-01-23T10:00:40;9.65;;;5.57;;
55069;SDS011;40967;52.070;8.596;2023-01-23T10:03:10;10.20;;;5.90;;
55069;SDS011;40967;52.070;8.596;2023-01-23T10:05:42;12.20;;;6.15;;
55069;SDS011;40967;52.070;8.596;2023-01-23T10:16:57;10.50;;;5.40;;
55069;SDS011;40967;52.070;8.596;2023-01-23T10:22:00;9.10;;;5.33;;
55069;SDS011;40967;52.070;8.596;2023-01-23T10:24:42;9.27;;;5.03;;
55069;SDS011;40967;52.070;8.596;2023-01-23T10:27:14;9.93;;;4.93;;
55069;SDS011;40967;52.070;8.596;2023-01-23T10:29:45;8.33;;;4.50;;
55069;SDS011;40967;52.070;8.596;2023-01-23T10:32:27;8.68;;;4.93;;
55069;SDS011;40967;52.070;8.596;2023-01-23T10:34:55;7.82;;;4.20;;
55069;SDS011;40967;52.070;8.596;2023-01-23T10:40:19;9.77;;;5.43;;
55069;SDS011;40967;52.070;8.596;2023-01-23T10:43:13;8.38;;;4.88;;
55069;SDS011;40967;52.070;8.596;2023-01-23T10:45:39;9.55;;;5.45;;
55069;SDS011;40967;52.070;8.596;2023-01-23T10:50:56;8.70;;;4.93;;
55069;SDS011;40967;52.070;8.596;2023-01-23T10:53:22;8.18;;;4.93;;
55069;SDS011;40967;52.070;8.596;2023-01-23T10:55:49;7.68;;;4.38;;
55069;SDS011;40967;52.070;8.596;2023-01-23T11:01:25;7.70;;;4.38;;
55069;SDS011;40967;52.070;8.596;2023-01-23T11:03:53;7.50;;;4.25;;
55069;SDS011;40967;52.070;8.596;2023-01-23T11:06:20;8.73;;;4.73;;
55069;SDS011;40967;52.070;8.596;2023-01-23T11:08:59;7.85;;;4.68;;
55069;SDS011;40967;52.070;8.596;2023-01-23T11:11:26;7.32;;;4.40;;
55069;SDS011;40967;52.070;8.596;2023-01-23T11:14:04;7.82;;;4.53;;
55069;SDS011;40967;52.070;8.596;2023-01-23T11:16:41;7.63;;;4.28;;
55069;SDS011;40967;52.070;8.596;2023-01-23T11:21:33;6.90;;;3.80;;
55069;SDS011;40967;52.070;8.596;2023-01-23T11:27:00;7.00;;;3.88;;
55069;SDS011;40967;52.070;8.596;2023-01-23T11:29:27;6.60;;;3.38;;
55069;SDS011;40967;52.070;8.596;2023-01-23T11:31:56;7.03;;;3.92;;
55069;SDS011;40967;52.070;8.596;2023-01-23T11:34:39;6.72;;;3.60;;
55069;SDS011;40967;52.070;8.596;2023-01-23T11:37:21;6.57;;;3.63;;
55069;SDS011;40967;52.070;8.596;2023-01-23T11:42:23;6.70;;;3.90;;
55069;SDS011;40967;52.070;8.596;2023-01-23T11:44:52;6.85;;;3.88;;
55069;SDS011;40967;52.070;8.596;2023-01-23T11:47:35;7.45;;;4.03;;
55069;SDS011;40967;52.070;8.596;2023-01-23T11:53:10;6.80;;;4.10;;
55069;SDS011;40967;52.070;8.596;2023-01-23T12:09:19;8.32;;;5.13;;
55069;SDS011;40967;52.070;8.596;2023-01-23T12:14:34;9.23;;;5.07;;
55069;SDS011;40967;52.070;8.596;2023-01-23T12:25:47;8.98;;;5.00;;
55069;SDS011;40967;52.070;8.596;2023-01-23T12:42:23;7.38;;;4.13;;
55069;SDS011;40967;52.070;8.596;2023-01-23T12:47:40;8.20;;;4.75;;
55069;SDS011;40967;52.070;8.596;2023-01-23T12:50:14;9.23;;;5.20;;
55069;SDS011;40967;52.070;8.596;2023-01-23T12:52:48;9.37;;;5.10;;
55069;SDS011;40967;52.070;8.596;2023-01-23T12:55:20;7.85;;;4.50;;
55069;SDS011;40967;52.070;8.596;2023-01-23T12:57:50;8.48;;;4.60;;
55069;SDS011;40967;52.070;8.596;2023-01-23T13:02:51;8.95;;;5.07;;
55069;SDS011;40967;52.070;8.596;2023-01-23T13:05:29;8.32;;;5.10;;
55069;SDS011;40967;52.070;8.596;2023-01-23T13:08:17;9.07;;;4.90;;
55069;SDS011;40967;52.070;8.596;2023-01-23T13:11:08;9.10;;;5.30;;
55069;SDS011;40967;52.070;8.596;2023-01-23T13:13:55;8.38;;;4.85;;
55069;SDS011;40967;52.070;8.596;2023-01-23T13:16:27;8.00;;;4.73;;
55069;SDS011;40967;52.070;8.596;2023-01-23T13:18:55;9.80;;;5.50;;
55069;SDS011;40967;52.070;8.596;2023-01-23T13:30:47;9.13;;;5.10;;
55069;SDS011;40967;52.070;8.596;2023-01-23T13:32:56;9.40;;;5.40;;
55069;SDS011;40967;52.070;8.596;2023-01-23T13:49:29;11.10;;;6.07;;
55069;SDS011;40967;52.070;8.596;2023-01-23T13:52:25;10.35;;;6.30;;
55069;SDS011;40967;52.070;8.596;2023-01-23T13:55:17;11.82;;;6.55;;
55069;SDS011;40967;52.070;8.596;2023-01-23T13:58:05;11.60;;;6.88;;
55069;SDS011;40967;52.070;8.596;2023-01-23T14:00:34;10.98;;;6.18;;
55069;SDS011;40967;52.070;8.596;2023-01-23T14:03:26;11.57;;;6.55;;
55069;SDS011;40967;52.070;8.596;2023-01-23T14:06:15;11.80;;;6.60;;
55069;SDS011;40967;52.070;8.596;2023-01-23T14:08:48;10.90;;;6.37;;
55069;SDS011;40967;52.070;8.596;2023-01-23T14:11:19;11.43;;;6.70;;
55069;SDS011;40967;52.070;8.596;2023-01-23T14:13:46;11.73;;;6.55;;
55069;SDS011;40967;52.070;8.596;2023-01-23T14:16:13;13.35;;;6.88;;
55069;SDS011;40967;52.070;8.596;2023-01-23T14:18:48;12.23;;;6.95;;
55069;SDS011;40967;52.070;8.596;2023-01-23T14:23:49;11.75;;;6.28;;
55069;SDS011;40967;52.070;8.596;2023-01-23T14:26:18;11.07;;;6.07;;
55069;SDS011;40967;52.070;8.596;2023-01-23T14:28:52;12.75;;;7.20;;
55069;SDS011;40967;52.070;8.596;2023-01-23T14:31:29;12.50;;;6.80;;
55069;SDS011;40967;52.070;8.596;2023-01-23T14:34:02;13.27;;;7.35;;
55069;SDS011;40967;52.070;8.596;2023-01-23T14:36:33;12.67;;;6.73;;
55069;SDS011;40967;52.070;8.596;2023-01-23T14:39:02;14.32;;;7.90;;
55069;SDS011;40967;52.070;8.596;2023-01-23T14:41:30;15.18;;;8.02;;
55069;SDS011;40967;52.070;8.596;2023-01-23T14:43:59;14.47;;;7.60;;
55069;SDS011;40967;52.070;8.596;2023-01-23T14:48:57;12.60;;;7.27;;
55069;SDS011;40967;52.070;8.596;2023-01-23T14:51:24;14.60;;;7.80;;
55069;SDS011;40967;52.070;8.596;2023-01-23T14:54:02;13.60;;;7.82;;
55069;SDS011;40967;52.070;8.596;2023-01-23T14:56:33;14.80;;;8.45;;
55069;SDS011;40967;52.070;8.596;2023-01-23T14:59:11;14.10;;;8.40;;
55069;SDS011;40967;52.070;8.596;2023-01-23T15:01:59;14.20;;;8.15;;
55069;SDS011;40967;52.070;8.596;2023-01-23T15:04:27;15.75;;;8.70;;
55069;SDS011;40967;52.070;8.596;2023-01-23T15:06:55;15.57;;;8.90;;
55069;SDS011;40967;52.070;8.596;2023-01-23T15:09:31;15.85;;;8.82;;
55069;SDS011;40967;52.070;8.596;2023-01-23T15:12:09;14.00;;;8.00;;
55069;SDS011;40967;52.070;8.596;2023-01-23T15:14:40;13.20;;;7.38;;
55069;SDS011;40967;52.070;8.596;2023-01-23T15:17:14;13.18;;;7.47;;
55069;SDS011;40967;52.070;8.596;2023-01-23T15:19:42;14.65;;;8.15;;
55069;SDS011;40967;52.070;8.596;2023-01-23T15:24:40;14.40;;;8.00;;
55069;SDS011;40967;52.070;8.596;2023-01-23T15:27:21;15.53;;;8.70;;
55069;SDS011;40967;52.070;8.596;2023-01-23T15:29:49;14.05;;;7.68;;
55069;SDS011;40967;52.070;8.596;2023-01-23T15:32:24;13.60;;;7.70;;
55069;SDS011;40967;52.070;8.596;2023-01-23T15:34:53;12.02;;;6.95;;
55069;SDS011;40967;52.070;8.596;2023-01-23T15:37:22;12.75;;;6.88;;
55069;SDS011;40967;52.070;8.596;2023-01-23T15:39:51;14.30;;;8.43;;
55069;SDS011;40967;52.070;8.596;2023-01-23T15:44:52;16.25;;;8.73;;
55069;SDS011;40967;52.070;8.596;2023-01-23T15:47:18;16.05;;;8.43;;
55069;SDS011;40967;52.070;8.596;2023-01-23T15:49:44;15.37;;;8.67;;
55069;SDS011;40967;52.070;8.596;2023-01-23T15:52:19;14.03;;;8.00;;
55069;SDS011;40967;52.070;8.596;2023-01-23T15:54:50;13.60;;;7.72;;
55069;SDS011;40967;52.070;8.596;2023-01-23T15:57:18;12.60;;;7.10;;
55069;SDS011;40967;52.070;8.596;2023-01-23T15:59:44;14.32;;;7.68;;
55069;SDS011;40967;52.070;8.596;2023-01-23T16:02:20;14.90;;;7.93;;
55069;SDS011;40967;52.070;8.596;2023-01-23T16:04:47;14.38;;;8.40;;
55069;SDS011;40967;52.070;8.596;2023-01-23T16:07:18;13.90;;;7.47;;
55069;SDS011;40967;52.070;8.596;2023-01-23T16:09:46;14.93;;;8.50;;
55069;SDS011;40967;52.070;8.596;2023-01-23T16:12:15;15.73;;;8.52;;
55069;SDS011;40967;52.070;8.596;2023-01-23T16:14:42;13.32;;;8.30;;
55069;SDS011;40967;52.070;8.596;2023-01-23T16:17:07;14.20;;;7.83;;
55069;SDS011;40967;52.070;8.596;2023-01-23T16:19:32;14.80;;;8.20;;
55069;SDS011;40967;52.070;8.596;2023-01-23T16:21:58;14.13;;;8.07;;
55069;SDS011;40967;52.070;8.596;2023-01-23T16:24:24;13.88;;;7.97;;
55069;SDS011;40967;52.070;8.596;2023-01-23T16:26:50;13.88;;;8.23;;
55069;SDS011;40967;52.070;8.596;2023-01-23T16:29:23;14.03;;;7.90;;
55069;SDS011;40967;52.070;8.596;2023-01-23T16:31:49;14.25;;;8.10;;
55069;SDS011;40967;52.070;8.596;2023-01-23T16:34:14;16.03;;;8.83;;
55069;SDS011;40967;52.070;8.596;2023-01-23T16:36:39;14.73;;;8.20;;
55069;SDS011;40967;52.070;8.596;2023-01-23T16:39:05;15.13;;;8.53;;
55069;SDS011;40967;52.070;8.596;2023-01-23T16:41:31;14.57;;;7.47;;
55069;SDS011;40967;52.070;8.596;2023-01-23T16:43:56;15.93;;;8.50;;
55069;SDS011;40967;52.070;8.596;2023-01-23T16:46:21;13.80;;;8.10;;
55069;SDS011;40967;52.070;8.596;2023-01-23T16:48:46;15.27;;;8.65;;
55069;SDS011;40967;52.070;8.596;2023-01-23T16:51:16;15.60;;;8.50;;
55069;SDS011;40967;52.070;8.596;2023-01-23T16:53:48;14.13;;;8.05;;
55069;SDS011;40967;52.070;8.596;2023-01-23T16:56:22;14.88;;;8.32;;
55069;SDS011;40967;52.070;8.596;2023-01-23T16:58:52;14.90;;;8.40;;
55069;SDS011;40967;52.070;8.596;2023-01-23T17:01:20;15.00;;;8.33;;